WJA749 CYXU-CYYC
Flight info
| Callsign | WJA749 |
|---|---|
| Flight time | N/A |
| Altitude | 38000 |
| Route | HOCKE DCT GRB DCT GGULL DCT MOT DCT BEVEL DCT VESDO EBGAL7 |
| Aircraft | B738/M-SDE2E3FGHIRWXY/LB1 |
Departure
| Time | 2026-04-29 23:03 |
|---|---|
| Airport | London International Airport (CYXU) |
Arrival
| Time | N/A |
|---|---|
| Airport | Calgary International Airport (CYYC) |
| Time | Latitude | Longitude | Altitude | Speed | Heading |
|---|---|---|---|---|---|
| 2026-04-29 22:35 | 43.02935 | -81.14863 | 904 ft | 0 kts | 230° |
| 2026-04-29 22:51 | 43.02953 | -81.14836 | 901 ft | 2 kts | 230° |
| 2026-04-29 22:52 | 43.02965 | -81.14819 | 900 ft | 3 kts | 203° |
| 2026-04-29 22:52 | 43.02979 | -81.14816 | 900 ft | 3 kts | 147° |
| 2026-04-29 22:52 | 43.02994 | -81.14834 | 900 ft | 3 kts | 131° |
| 2026-04-29 22:52 | 43.03006 | -81.14852 | 900 ft | 2 kts | 137° |
| 2026-04-29 22:53 | 43.03008 | -81.14855 | 900 ft | 1 kts | 139° |
| 2026-04-29 22:55 | 43.03002 | -81.14848 | 901 ft | 2 kts | 139° |
| 2026-04-29 22:56 | 43.02980 | -81.14821 | 900 ft | 6 kts | 139° |
| 2026-04-29 22:56 | 43.02939 | -81.14772 | 901 ft | 10 kts | 139° |
| 2026-04-29 22:56 | 43.02881 | -81.14703 | 901 ft | 12 kts | 139° |
| 2026-04-29 22:56 | 43.02809 | -81.14616 | 901 ft | 15 kts | 140° |
| 2026-04-29 22:57 | 43.02726 | -81.14517 | 901 ft | 17 kts | 139° |
| 2026-04-29 22:57 | 43.02633 | -81.14406 | 901 ft | 18 kts | 139° |
| 2026-04-29 22:57 | 43.02542 | -81.14295 | 901 ft | 17 kts | 139° |
| 2026-04-29 22:57 | 43.02456 | -81.14192 | 901 ft | 16 kts | 138° |
| 2026-04-29 22:58 | 43.02373 | -81.14091 | 901 ft | 16 kts | 138° |
| 2026-04-29 22:58 | 43.02314 | -81.14014 | 901 ft | 8 kts | 119° |
| 2026-04-29 22:58 | 43.02328 | -81.13947 | 902 ft | 8 kts | 49° |
| 2026-04-29 22:58 | 43.02337 | -81.13932 | 900 ft | 0 kts | 49° |
| 2026-04-29 23:00 | 43.02338 | -81.13931 | 900 ft | 1 kts | 49° |
| 2026-04-29 23:00 | 43.02361 | -81.13895 | 899 ft | 7 kts | 48° |
| 2026-04-29 23:01 | 43.02396 | -81.13845 | 899 ft | 6 kts | 34° |
| 2026-04-29 23:01 | 43.02433 | -81.13850 | 899 ft | 6 kts | 334° |
| 2026-04-29 23:01 | 43.02451 | -81.13867 | 899 ft | 0 kts | 319° |
| 2026-04-29 23:02 | 43.02465 | -81.13884 | 899 ft | 8 kts | 319° |
| 2026-04-29 23:02 | 43.02625 | -81.14074 | 901 ft | 62 kts | 319° |
| 2026-04-29 23:02 | 43.03112 | -81.14665 | 899 ft | 123 kts | 319° |
| 2026-04-29 23:02 | 43.03883 | -81.15597 | 901 ft | 171 kts | 317° |
| 2026-04-29 23:03 | 43.04833 | -81.16754 | 1282 ft | 189 kts | 321° |
| 2026-04-29 23:03 | 43.05839 | -81.17980 | 1858 ft | 201 kts | 320° |
| 2026-04-29 23:03 | 43.06856 | -81.19280 | 2541 ft | 199 kts | 319° |
| 2026-04-29 23:03 | 43.07858 | -81.20567 | 3167 ft | 196 kts | 319° |
| 2026-04-29 23:04 | 43.08841 | -81.21826 | 3778 ft | 192 kts | 319° |
| 2026-04-29 23:04 | 43.09806 | -81.23086 | 4366 ft | 193 kts | 310° |
| 2026-04-29 23:04 | 43.10266 | -81.24867 | 4538 ft | 218 kts | 269° |
| 2026-04-29 23:04 | 43.09956 | -81.26980 | 4826 ft | 234 kts | 261° |
| 2026-04-29 23:05 | 43.09661 | -81.29208 | 5349 ft | 237 kts | 265° |
| 2026-04-29 23:05 | 43.09487 | -81.31469 | 5860 ft | 247 kts | 268° |
| 2026-04-29 23:05 | 43.09424 | -81.33895 | 6319 ft | 260 kts | 271° |
| 2026-04-29 23:05 | 43.09459 | -81.36359 | 7148 ft | 258 kts | 273° |
| 2026-04-29 23:06 | 43.09570 | -81.38815 | 7934 ft | 260 kts | 275° |
| 2026-04-29 23:06 | 43.09743 | -81.41285 | 8680 ft | 262 kts | 276° |
| 2026-04-29 23:06 | 43.09959 | -81.43741 | 9424 ft | 264 kts | 276° |
| 2026-04-29 23:06 | 43.10212 | -81.46246 | 10132 ft | 266 kts | 277° |
| 2026-04-29 23:07 | 43.10496 | -81.48821 | 10454 ft | 284 kts | 277° |
| 2026-04-29 23:07 | 43.10822 | -81.51599 | 10639 ft | 306 kts | 278° |
| 2026-04-29 23:07 | 43.11185 | -81.54563 | 10828 ft | 325 kts | 278° |
| 2026-04-29 23:07 | 43.11577 | -81.57661 | 11041 ft | 333 kts | 278° |
| 2026-04-29 23:08 | 43.11982 | -81.60781 | 11035 ft | 333 kts | 279° |
| 2026-04-29 23:08 | 43.12392 | -81.63902 | 11030 ft | 334 kts | 279° |
| 2026-04-29 23:08 | 43.12807 | -81.67045 | 11290 ft | 339 kts | 279° |
| 2026-04-29 23:08 | 43.13230 | -81.70232 | 12012 ft | 339 kts | 279° |